Terminal Aerodrome Forecast
Issued by NWS

Current Version | Previous Version | Graphics & Text | Print | Product List | Glossary On
Versions: 1 2 3 4 5 6 7 8 9 10 11 12 13 14 15 16 17 18
000
FTUS41 KPBZ 231845 AAA
TAFMGW
TAF AMD
KMGW 231845Z 2319/2418 21008KT P6SM VCSH SCT015 OVC035
     FM232000 20010KT P6SM VCTS OVC025CB
     FM240000 23009KT 3SM SHRA VCTS OVC015CB
     FM240600 26008KT 5SM BR VCSH OVC006=

USA.gov is the U.S. government's official web portal to all federal, state and local government web resources and services.